Time;durP1;ratioP1;P1;durP2;ratioP2;P2;SDS_P1;SDS_P2;PMS_P1;PMS_P2;Temp;Humidity;BMP_temperature;BMP_pressure;BME280_temperature;BME280_humidity;BME280_pressure;Samples;Min_cycle;Max_cycle;Signal;HPM_P1;HPM_P2
2023/08/10 00:00:08;;;;;;;4.50;2.33;;;;;;;22.09;53.96;101187.47;5012693;28;20458;-82
2023/08/10 00:02:33;;;;;;;4.47;2.30;;;;;;;22.01;54.46;101185.09;5013804;28;20399;-81
2023/08/10 00:04:59;;;;;;;5.40;2.10;;;;;;;21.89;54.58;101193.19;5028934;28;20380;-81
2023/08/10 00:07:24;;;;;;;3.17;2.00;;;;;;;21.95;52.95;101194.16;5013193;28;20384;-82
2023/08/10 00:09:50;;;;;;;5.25;2.33;;;;;;;22.05;53.56;101197.06;5024389;28;20485;-80
2023/08/10 00:12:15;;;;;;;6.15;2.33;;;;;;;22.14;53.81;101192.16;5032949;28;20448;-82
2023/08/10 00:14:41;;;;;;;4.57;2.30;;;;;;;22.14;53.36;101174.06;5033517;28;20755;-81
2023/08/10 00:17:06;;;;;;;4.77;2.40;;;;;;;22.25;53.61;101185.91;5032174;28;20400;-81
2023/08/10 00:19:32;;;;;;;4.15;2.00;;;;;;;22.33;53.84;101188.28;5033136;28;20411;-80
2023/08/10 00:21:57;;;;;;;5.13;2.53;;;;;;;22.34;54.70;101178.28;5032605;28;20409;-79
2023/08/10 00:24:23;;;;;;;4.07;2.30;;;;;;;22.39;55.46;101183.81;5035707;28;20392;-79
2023/08/10 00:26:48;;;;;;;7.43;2.70;;;;;;;22.30;56.03;101188.75;5036275;28;20387;-79
2023/08/10 00:29:14;;;;;;;5.60;2.50;;;;;;;22.31;55.77;101182.31;5035378;28;20382;-78
2023/08/10 00:31:39;;;;;;;5.25;2.40;;;;;;;22.31;56.22;101181.50;5035450;28;20414;-80
2023/08/10 00:34:05;;;;;;;4.77;2.40;;;;;;;22.31;56.60;101178.78;5035175;28;20747;-80
2023/08/10 00:36:30;;;;;;;4.73;2.63;;;;;;;22.29;56.87;101181.72;5035628;28;20378;-81
2023/08/10 00:38:56;;;;;;;4.65;2.58;;;;;;;22.22;57.59;101170.19;5034155;28;20378;-80
2023/08/10 00:41:21;;;;;;;5.60;2.50;;;;;;;22.24;57.24;101161.88;5032782;28;20422;-79
2023/08/10 00:43:48;;;;;;;4.10;2.30;;;;;;;22.10;57.13;101164.78;5033960;28;20924;-82
2023/08/10 00:46:13;;;;;;;4.63;2.55;;;;;;;22.05;56.77;101155.75;5037255;28;20446;-82
2023/08/10 00:48:40;;;;;;;4.93;2.20;;;;;;;22.01;56.37;101155.41;5041298;28;20517;-83
2023/08/10 00:51:05;;;;;;;6.17;2.10;;;;;;;22.00;55.98;101159.16;5035353;28;20952;-83
2023/08/10 00:53:32;;;;;;;5.28;2.40;;;;;;;21.94;56.71;101165.50;5034763;28;20481;-82
2023/08/10 00:55:59;;;;;;;5.30;2.47;;;;;;;21.76;57.57;101166.44;5034926;28;20700;-82
2023/08/10 00:58:26;;;;;;;4.53;2.20;;;;;;;21.71;57.41;101164.41;5034610;28;20382;-82
2023/08/10 01:00:52;;;;;;;3.33;2.00;;;;;;;21.71;57.01;101163.59;5032913;28;20867;-82
2023/08/10 01:03:18;;;;;;;3.80;2.05;;;;;;;21.68;57.00;101159.50;5034416;28;20393;-82
2023/08/10 01:06:00;;;;;;;4.40;1.95;;;;;;;21.74;56.42;101172.06;5032079;28;20382;-82
2023/08/10 01:08:56;;;;;;;4.03;1.95;;;;;;;21.80;55.95;101172.19;5031849;28;20499;-81
2023/08/10 01:11:39;;;;;;;5.05;1.88;;;;;;;21.79;55.54;101184.88;5033096;28;20425;-83
2023/08/10 01:14:10;;;;;;;3.70;1.77;;;;;;;21.73;55.89;101186.63;5033990;28;20437;-82
2023/08/10 01:16:40;;;;;;;4.23;1.80;;;;;;;21.70;56.12;101192.47;5033227;28;20378;-82
2023/08/10 01:19:16;;;;;;;4.18;1.80;;;;;;;21.71;56.39;101198.69;5033464;28;20386;-82
2023/08/10 01:22:01;;;;;;;4.85;1.75;;;;;;;21.67;56.63;101206.44;5033423;28;20701;-82
2023/08/10 01:24:32;;;;;;;3.97;1.70;;;;;;;21.67;56.42;101211.81;5033046;28;20410;-82
2023/08/10 01:26:57;;;;;;;2.95;1.60;;;;;;;21.30;57.21;101193.06;5033208;28;20385;-81
2023/08/10 01:29:24;;;;;;;4.20;1.90;;;;;;;21.36;57.01;101194.81;5033993;28;20382;-82
2023/08/10 01:31:49;;;;;;;5.38;1.58;;;;;;;21.46;56.82;101207.78;5033301;28;20406;-81
2023/08/10 01:34:15;;;;;;;5.10;1.63;;;;;;;21.41;56.95;101198.69;5033399;28;20420;-81
2023/08/10 01:36:40;;;;;;;4.57;1.60;;;;;;;21.35;57.41;101200.44;5033271;28;20382;-82
2023/08/10 01:39:06;;;;;;;3.60;1.67;;;;;;;21.25;58.01;101190.22;5032325;28;20440;-81
2023/08/10 01:41:31;;;;;;;3.53;1.60;;;;;;;21.14;58.24;101178.34;5033794;28;20375;-81
2023/08/10 01:43:57;;;;;;;3.70;1.40;;;;;;;21.10;58.25;101187.13;5033591;28;20378;-81
2023/08/10 01:46:26;;;;;;;2.40;1.40;;;;;;;21.09;58.07;101196.28;5033999;28;20469;-81
2023/08/10 01:48:54;;;;;;;2.63;1.45;;;;;;;21.03;58.02;101181.00;5033709;28;20938;-80
2023/08/10 01:51:25;;;;;;;3.50;1.40;;;;;;;20.98;58.24;101189.78;5034395;28;20386;-80
2023/08/10 01:53:53;;;;;;;3.15;1.30;;;;;;;20.95;58.59;101191.03;5033686;28;20933;-80
2023/08/10 01:56:19;;;;;;;2.80;1.30;;;;;;;20.87;58.79;101188.66;5033846;28;20386;-80
2023/08/10 01:58:45;;;;;;;2.95;1.40;;;;;;;20.87;59.01;101209.38;5049620;28;20478;-81
2023/08/10 02:01:11;;;;;;;3.72;1.33;;;;;;;20.82;59.04;101196.59;5033459;28;20481;-81
2023/08/10 02:03:37;;;;;;;3.58;1.23;;;;;;;20.73;59.13;101192.56;5033144;28;20476;-81
2023/08/10 02:06:03;;;;;;;4.18;1.45;;;;;;;20.67;58.76;101196.16;5033942;28;20743;-80
2023/08/10 02:08:29;;;;;;;2.40;1.30;;;;;;;20.61;58.86;101187.09;5035604;28;20383;-81
2023/08/10 02:10:54;;;;;;;2.43;1.20;;;;;;;20.55;58.79;101177.22;5038203;28;20387;-80
2023/08/10 02:13:20;;;;;;;4.57;1.33;;;;;;;20.55;58.42;101178.03;5037640;28;20552;-81
2023/08/10 02:15:46;;;;;;;2.50;1.27;;;;;;;20.48;58.37;101171.91;5037976;28;20389;-80
2023/08/10 02:18:12;;;;;;;1.93;1.00;;;;;;;20.45;58.03;101180.41;5042405;28;20379;-81
2023/08/10 02:20:38;;;;;;;2.22;1.40;;;;;;;20.41;57.77;101173.84;5041872;28;20398;-81
2023/08/10 02:23:04;;;;;;;2.65;1.00;;;;;;;20.44;57.51;101179.59;5038780;28;20408;-81
2023/08/10 02:25:29;;;;;;;1.60;1.10;;;;;;;20.40;57.53;101170.34;5037003;28;20382;-80
2023/08/10 02:27:55;;;;;;;3.87;1.10;;;;;;;20.43;57.32;101177.13;5037272;28;20810;-81
2023/08/10 02:30:20;;;;;;;1.75;1.00;;;;;;;20.49;57.11;101192.41;5036665;28;20435;-81
2023/08/10 02:32:46;;;;;;;2.43;1.17;;;;;;;20.58;57.15;101211.75;5037193;28;20386;-81
2023/08/10 02:35:13;;;;;;;2.67;1.30;;;;;;;20.38;58.14;101218.22;5044156;28;20727;-81
2023/08/10 02:37:39;;;;;;;2.25;1.10;;;;;;;20.28;58.79;101225.16;5040177;28;20442;-80
2023/08/10 02:40:11;;;;;;;2.75;1.48;;;;;;;20.20;58.94;101223.53;5040116;28;20382;-81
2023/08/10 02:42:37;;;;;;;2.03;1.17;;;;;;;20.39;58.36;101236.00;5040211;28;20417;-82
2023/08/10 02:45:03;;;;;;;3.95;1.50;;;;;;;20.58;58.23;101234.16;5041353;28;20383;-81
2023/08/10 02:47:29;;;;;;;3.67;1.52;;;;;;;20.62;58.77;101239.94;5040070;28;20399;-81
2023/08/10 02:49:54;;;;;;;3.70;1.60;;;;;;;20.60;59.12;101245.53;5040169;28;20786;-81
2023/08/10 02:52:20;;;;;;;3.00;1.27;;;;;;;20.51;59.24;101259.50;5037518;28;20390;-81
2023/08/10 02:54:45;;;;;;;2.60;1.40;;;;;;;20.33;59.55;101266.50;5037616;28;20416;-81
2023/08/10 02:57:11;;;;;;;1.90;1.20;;;;;;;20.41;59.22;101276.16;5038812;28;20794;-81
2023/08/10 02:59:37;;;;;;;3.43;1.30;;;;;;;20.54;58.94;101270.63;5039196;28;20389;-81
2023/08/10 03:02:03;;;;;;;6.30;1.40;;;;;;;20.65;58.58;101271.81;5039209;28;20386;-81
2023/08/10 03:04:29;;;;;;;1.98;1.20;;;;;;;20.66;58.45;101275.34;5038229;28;20425;-81
2023/08/10 03:06:54;;;;;;;2.08;1.40;;;;;;;20.59;58.36;101275.38;5037210;28;20389;-81
2023/08/10 03:09:20;;;;;;;3.90;1.50;;;;;;;20.48;58.40;101290.38;5037646;28;20394;-82
2023/08/10 03:11:45;;;;;;;2.42;1.35;;;;;;;20.29;58.83;101288.69;5037179;28;20416;-81
2023/08/10 03:14:11;;;;;;;2.53;1.40;;;;;;;20.21;59.19;101297.88;5036932;28;20882;-80
2023/08/10 03:16:37;;;;;;;3.30;1.57;;;;;;;20.04;59.77;101284.97;5036031;28;20413;-79
2023/08/10 03:19:02;;;;;;;2.13;1.20;;;;;;;20.04;59.52;101276.91;5033750;28;20382;-80
2023/08/10 03:21:28;;;;;;;3.20;1.50;;;;;;;20.12;59.21;101283.88;5035047;28;20386;-78
2023/08/10 03:23:53;;;;;;;3.63;1.47;;;;;;;20.25;58.80;101282.94;5035241;28;20805;-80
2023/08/10 03:26:19;;;;;;;2.88;1.50;;;;;;;20.40;58.71;101296.91;5036731;28;20436;-80
2023/08/10 03:28:44;;;;;;;3.50;1.50;;;;;;;20.47;58.84;101293.31;5035850;28;20382;-81
2023/08/10 03:31:13;;;;;;;3.20;1.57;;;;;;;20.36;59.21;101282.19;5033598;28;20968;-81
2023/08/10 03:33:40;;;;;;;2.10;1.47;;;;;;;20.27;59.27;101280.03;5033859;28;20418;-81
2023/08/10 03:36:06;;;;;;;2.85;1.50;;;;;;;20.38;58.79;101276.59;5030771;28;20379;-81
2023/08/10 03:38:32;;;;;;;3.47;1.50;;;;;;;20.43;58.76;101280.28;5033470;28;20452;-80
2023/08/10 03:40:57;;;;;;;3.75;1.50;;;;;;;20.34;59.21;101281.59;5035542;28;20389;-81
2023/08/10 03:43:23;;;;;;;2.17;1.50;;;;;;;20.08;59.57;101290.75;5042416;28;20404;-81
2023/08/10 03:45:48;;;;;;;2.83;1.67;;;;;;;19.89;59.96;101287.16;5044073;28;20394;-81
2023/08/10 03:48:14;;;;;;;2.90;1.80;;;;;;;19.89;60.13;101287.16;5043946;28;20390;-79
2023/08/10 03:50:39;;;;;;;2.17;1.48;;;;;;;19.97;59.81;101294.13;5043738;28;20399;-80
2023/08/10 03:53:06;;;;;;;2.63;1.60;;;;;;;19.98;60.04;101296.59;5043454;28;20900;-79
2023/08/10 03:55:32;;;;;;;4.32;1.70;;;;;;;19.89;60.08;101286.31;5042149;28;20450;-79
2023/08/10 03:57:57;;;;;;;5.47;1.70;;;;;;;19.87;60.33;101281.16;5041820;28;21237;-78
2023/08/10 04:00:23;;;;;;;3.63;1.47;;;;;;;19.89;60.39;101292.53;5039713;28;20479;-77
2023/08/10 04:02:48;;;;;;;2.60;1.63;;;;;;;19.85;60.49;101289.44;5036106;28;20384;-77
2023/08/10 04:05:14;;;;;;;2.73;1.67;;;;;;;19.79;60.47;101295.72;5041998;28;20388;-77
2023/08/10 04:07:40;;;;;;;3.13;1.73;;;;;;;19.81;60.62;101299.00;5040796;28;20520;-77
2023/08/10 04:10:07;;;;;;;2.83;1.60;;;;;;;19.89;60.20;101302.47;5040231;28;20381;-77
2023/08/10 04:12:36;;;;;;;2.08;1.42;;;;;;;20.02;59.81;101305.91;5039258;28;20415;-77
2023/08/10 04:15:04;;;;;;;2.30;1.50;;;;;;;20.09;59.48;101305.84;5042450;28;20527;-78
2023/08/10 04:17:29;;;;;;;2.83;1.73;;;;;;;20.17;59.44;101316.34;5038724;28;20421;-77
2023/08/10 04:19:56;;;;;;;4.85;2.00;;;;;;;20.23;59.29;101312.75;5039173;28;20390;-77
2023/08/10 04:22:23;;;;;;;3.72;2.20;;;;;;;20.28;59.24;101322.06;5039690;28;20499;-77
2023/08/10 04:24:49;;;;;;;2.97;1.70;;;;;;;20.23;59.56;101320.84;5041885;28;20384;-76
2023/08/10 04:27:14;;;;;;;3.97;2.25;;;;;;;20.20;59.88;101321.28;5035684;28;20480;-75
2023/08/10 04:29:43;;;;;;;3.03;2.20;;;;;;;20.17;59.86;101315.53;5037868;28;20849;-75
2023/08/10 04:32:09;;;;;;;6.10;2.95;;;;;;;20.12;60.16;101310.78;5032215;28;20818;-76
2023/08/10 04:34:34;;;;;;;5.90;3.25;;;;;;;20.01;60.19;101314.19;5038518;28;20409;-79
2023/08/10 04:37:00;;;;;;;7.70;3.20;;;;;;;19.98;60.44;101312.75;5039699;28;20378;-79
2023/08/10 04:39:25;;;;;;;4.45;3.08;;;;;;;19.97;60.48;101321.88;5037814;28;20378;-79
2023/08/10 04:41:51;;;;;;;3.93;2.53;;;;;;;19.92;60.62;101319.00;5032757;28;20472;-77
2023/08/10 04:44:16;;;;;;;3.50;2.50;;;;;;;19.85;60.96;101312.84;5029849;28;20677;-76
2023/08/10 04:46:42;;;;;;;4.70;2.83;;;;;;;19.84;60.88;101319.25;5032041;28;20537;-77
2023/08/10 04:49:07;;;;;;;3.83;3.00;;;;;;;19.84;60.79;101311.19;5037603;28;20455;-78
2023/08/10 04:51:33;;;;;;;6.47;3.55;;;;;;;19.92;60.84;101312.81;5030495;28;20386;-77
2023/08/10 04:53:58;;;;;;;6.07;3.93;;;;;;;19.94;60.75;101314.22;5029744;28;20874;-77
2023/08/10 04:56:23;;;;;;;8.17;5.13;;;;;;;19.98;60.80;101314.63;5030014;28;20386;-77
2023/08/10 04:58:49;;;;;;;4.83;2.83;;;;;;;19.91;60.90;101313.84;5029788;28;20468;-77
2023/08/10 05:01:14;;;;;;;4.17;2.30;;;;;;;19.96;60.63;101311.31;5029772;28;20880;-76
2023/08/10 05:03:40;;;;;;;4.55;2.70;;;;;;;19.97;60.47;101315.66;5031710;28;20786;-75
2023/08/10 05:06:06;;;;;;;5.20;3.20;;;;;;;20.03;60.56;101317.47;5030714;28;20393;-77
2023/08/10 05:08:31;;;;;;;7.83;3.77;;;;;;;19.97;60.52;101321.03;5031058;28;20481;-77
2023/08/10 05:10:58;;;;;;;5.17;3.33;;;;;;;19.90;60.63;101320.25;5030498;28;20385;-78
2023/08/10 05:13:24;;;;;;;3.75;2.03;;;;;;;19.85;60.96;101318.22;5030283;28;20843;-77
2023/08/10 05:15:50;;;;;;;3.28;1.48;;;;;;;19.78;61.25;101320.13;5029838;28;20388;-77
2023/08/10 05:18:20;;;;;;;3.42;1.60;;;;;;;19.71;61.24;101322.81;5029384;28;20387;-76
2023/08/10 05:20:45;;;;;;;3.25;2.03;;;;;;;19.71;61.60;101338.97;5030190;28;20731;-75
2023/08/10 05:23:11;;;;;;;9.47;4.47;;;;;;;19.71;61.64;101338.97;5030009;28;20788;-76
2023/08/10 05:25:37;;;;;;;7.63;4.33;;;;;;;19.73;61.48;101346.81;5030525;28;20470;-76
2023/08/10 05:28:03;;;;;;;6.13;3.63;;;;;;;19.74;61.75;101352.03;5030531;28;20386;-76
2023/08/10 05:30:28;;;;;;;4.47;2.70;;;;;;;19.83;61.63;101356.09;5030404;28;20444;-76
2023/08/10 05:32:54;;;;;;;4.50;2.90;;;;;;;20.02;61.04;101351.66;5029981;28;20780;-76
2023/08/10 05:35:21;;;;;;;2.13;1.50;;;;;;;20.19;60.77;101353.81;5029853;28;20401;-77
2023/08/10 05:37:46;;;;;;;3.00;1.30;;;;;;;20.25;60.49;101361.00;5028890;28;20444;-78
2023/08/10 05:40:12;;;;;;;2.10;1.50;;;;;;;20.32;60.13;101367.16;5030629;28;20382;-77
2023/08/10 05:42:39;;;;;;;1.20;1.10;;;;;;;20.37;59.76;101364.66;5031588;28;20386;-77
2023/08/10 05:45:06;;;;;;;1.58;1.20;;;;;;;20.36;59.92;101367.56;5034526;28;20701;-77
2023/08/10 05:47:32;;;;;;;2.55;1.15;;;;;;;20.30;59.94;101371.94;5034632;28;20401;-78
2023/08/10 05:49:58;;;;;;;2.30;1.10;;;;;;;20.39;59.88;101381.41;5034806;28;20425;-79
2023/08/10 05:52:23;;;;;;;1.70;1.00;;;;;;;20.38;59.94;101378.91;5033678;28;20851;-78
2023/08/10 05:54:49;;;;;;;1.40;1.13;;;;;;;20.42;59.92;101382.84;5034574;28;20437;-78
2023/08/10 05:57:14;;;;;;;2.78;1.35;;;;;;;20.50;59.56;101384.44;5034718;28;20378;-79
2023/08/10 05:59:40;;;;;;;2.20;1.30;;;;;;;20.62;59.51;101380.84;5034654;28;20395;-78
2023/08/10 06:02:06;;;;;;;2.10;1.73;;;;;;;20.71;59.32;101394.03;5034747;28;20398;-78
2023/08/10 06:04:32;;;;;;;3.08;1.40;;;;;;;20.75;59.40;101393.34;5037355;28;20398;-80
2023/08/10 06:06:57;;;;;;;1.63;1.33;;;;;;;20.75;59.28;101389.84;5036274;28;20386;-80
2023/08/10 06:09:23;;;;;;;1.45;1.17;;;;;;;20.70;59.57;101397.75;5035077;28;20438;-81
2023/08/10 06:11:49;;;;;;;1.65;1.30;;;;;;;20.67;59.79;101395.50;5034701;28;20864;-80
2023/08/10 06:14:15;;;;;;;1.30;1.20;;;;;;;20.56;60.13;101397.00;5033914;28;20417;-79
2023/08/10 06:16:40;;;;;;;2.20;1.50;;;;;;;20.49;60.29;101398.94;5034605;28;20382;-78
2023/08/10 06:19:06;;;;;;;1.77;1.20;;;;;;;20.52;60.07;101406.59;5033121;28;20858;-79
2023/08/10 06:21:31;;;;;;;2.67;1.27;;;;;;;20.53;59.76;101405.56;5033798;28;20388;-77
2023/08/10 06:23:57;;;;;;;2.30;1.20;;;;;;;20.61;59.70;101414.19;5033750;28;20370;-78
2023/08/10 06:26:22;;;;;;;1.75;1.30;;;;;;;20.59;60.01;101410.88;5033540;28;20485;-77
2023/08/10 06:28:48;;;;;;;1.80;1.10;;;;;;;20.50;60.07;101414.06;5032824;28;20878;-78
2023/08/10 06:31:14;;;;;;;1.20;1.08;;;;;;;20.46;60.28;101408.28;5033637;28;20425;-77
2023/08/10 06:33:40;;;;;;;2.10;1.20;;;;;;;20.44;60.36;101411.19;5033555;28;20410;-76
2023/08/10 06:36:06;;;;;;;1.60;1.05;;;;;;;20.47;60.30;101403.72;5033485;28;20383;-76
2023/08/10 06:38:35;;;;;;;3.00;1.80;;;;;;;20.42;60.56;101409.78;5033157;28;20470;-77
2023/08/10 06:41:01;;;;;;;2.60;1.13;;;;;;;20.46;60.50;101407.47;5032099;28;20788;-76
2023/08/10 06:43:28;;;;;;;2.92;1.42;;;;;;;20.49;60.41;101407.00;5032311;28;20441;-76
2023/08/10 06:45:54;;;;;;;1.88;1.20;;;;;;;20.38;60.46;101404.00;5032609;28;20424;-76
2023/08/10 06:48:20;;;;;;;2.88;1.80;;;;;;;20.31;60.33;101407.75;5032666;28;20410;-77
2023/08/10 06:50:46;;;;;;;6.50;2.10;;;;;;;20.33;60.56;101411.06;5033024;28;20382;-78
2023/08/10 06:53:12;;;;;;;4.95;1.83;;;;;;;20.31;60.56;101415.84;5032604;28;20956;-75
2023/08/10 06:55:38;;;;;;;3.88;2.45;;;;;;;20.33;60.56;101403.84;5031704;28;20394;-76
2023/08/10 06:58:04;;;;;;;4.15;2.90;;;;;;;20.37;60.69;101413.13;5033448;28;20425;-76
2023/08/10 07:00:30;;;;;;;7.55;3.33;;;;;;;20.40;60.85;101410.00;5032980;28;20386;-75
2023/08/10 07:02:56;;;;;;;4.38;3.53;;;;;;;20.52;60.62;101418.19;5031426;28;20448;-77
2023/08/10 07:05:28;;;;;;;4.35;2.20;;;;;;;20.52;60.72;101417.34;5033009;28;20455;-77
2023/08/10 07:07:55;;;;;;;5.85;2.25;;;;;;;20.53;61.14;101419.84;5032759;28;20382;-77
2023/08/10 07:10:21;;;;;;;2.42;1.38;;;;;;;20.43;61.54;101416.78;5032037;28;20383;-76
2023/08/10 07:12:47;;;;;;;2.85;1.65;;;;;;;20.37;61.60;101409.59;5032219;28;20524;-76
2023/08/10 07:15:13;;;;;;;2.13;1.90;;;;;;;20.44;61.55;101419.28;5031925;28;20418;-77
2023/08/10 07:17:38;;;;;;;4.43;2.50;;;;;;;20.54;61.71;101415.25;5032108;28;20909;-76
2023/08/10 07:20:05;;;;;;;6.00;2.42;;;;;;;20.62;61.52;101420.44;5032272;28;20732;-76
2023/08/10 07:22:31;;;;;;;5.03;2.40;;;;;;;20.75;61.85;101423.00;5031000;28;20387;-77
2023/08/10 07:25:00;;;;;;;2.20;1.83;;;;;;;21.04;61.24;101417.16;5031496;28;20390;-75
2023/08/10 07:27:26;;;;;;;2.95;2.20;;;;;;;21.21;61.04;101426.28;5030642;28;20383;-75
2023/08/10 07:29:51;;;;;;;2.43;1.70;;;;;;;21.40;60.64;101413.66;5030941;28;20444;-75
2023/08/10 07:32:18;;;;;;;2.50;1.60;;;;;;;21.72;60.27;101424.31;5031379;28;20406;-75
2023/08/10 07:34:44;;;;;;;2.10;1.80;;;;;;;21.99;59.58;101408.59;5031561;28;20493;-74
2023/08/10 07:37:10;;;;;;;2.27;1.40;;;;;;;22.30;58.91;101415.63;5031630;28;20388;-74
2023/08/10 07:39:36;;;;;;;1.77;1.20;;;;;;;22.21;58.75;101414.28;5031566;28;20398;-76
2023/08/10 07:42:01;;;;;;;2.20;1.40;;;;;;;22.32;58.88;101416.22;5031474;28;20382;-74
2023/08/10 07:44:27;;;;;;;1.52;1.17;;;;;;;22.33;58.98;101409.78;5031594;28;20378;-75
2023/08/10 07:46:52;;;;;;;2.67;1.30;;;;;;;22.37;58.99;101418.22;5031793;28;20379;-75
2023/08/10 07:49:18;;;;;;;1.40;1.20;;;;;;;22.26;58.74;101419.84;5031343;28;20386;-74
2023/08/10 07:51:47;;;;;;;1.70;1.20;;;;;;;22.05;59.29;101420.34;5031260;28;20390;-74
2023/08/10 07:54:15;;;;;;;1.67;1.23;;;;;;;22.02;59.28;101421.63;5030935;28;20451;-73
2023/08/10 07:56:41;;;;;;;1.35;1.25;;;;;;;22.24;59.05;101432.75;5031118;28;20397;-74
2023/08/10 07:59:07;;;;;;;1.45;1.15;;;;;;;22.54;58.14;101423.78;5031454;28;20410;-75
2023/08/10 08:01:32;;;;;;;3.27;1.23;;;;;;;22.51;57.31;101429.66;5031275;28;20862;-73
2023/08/10 08:03:58;;;;;;;1.55;1.20;;;;;;;22.27;57.41;101424.22;5031558;28;20396;-74
2023/08/10 08:06:23;;;;;;;1.83;1.30;;;;;;;22.40;57.72;101420.47;5030954;28;20386;-75
2023/08/10 08:08:49;;;;;;;1.40;1.00;;;;;;;22.53;56.49;101420.25;5030728;28;20426;-75
2023/08/10 08:11:15;;;;;;;1.80;1.00;;;;;;;22.26;56.53;101430.66;5029398;28;20379;-74
2023/08/10 08:13:40;;;;;;;2.17;1.20;;;;;;;22.29;56.57;101423.97;5030741;28;20402;-74
2023/08/10 08:16:06;;;;;;;2.10;1.10;;;;;;;22.57;55.69;101438.72;5030766;28;20382;-75
2023/08/10 08:18:40;;;;;;;2.20;1.70;;;;;;;22.40;55.92;101428.59;5030851;28;20843;-75
2023/08/10 08:21:07;;;;;;;1.65;1.48;;;;;;;22.74;55.86;101433.44;5030424;28;20378;-74
2023/08/10 08:23:33;;;;;;;2.57;1.90;;;;;;;22.77;55.21;101430.28;5030345;28;20374;-74
2023/08/10 08:25:58;;;;;;;1.67;1.40;;;;;;;22.82;54.99;101438.53;5030618;28;20391;-76
2023/08/10 08:28:24;;;;;;;3.73;1.60;;;;;;;22.89;55.18;101442.75;5030889;28;20452;-74
2023/08/10 08:30:51;;;;;;;1.98;1.15;;;;;;;23.11;54.13;101436.78;5029495;28;20437;-76
2023/08/10 08:33:17;;;;;;;1.52;1.10;;;;;;;22.86;53.98;101432.38;5030793;28;20836;-74
2023/08/10 08:35:46;;;;;;;2.30;1.10;;;;;;;22.99;54.57;101441.34;5030173;28;20501;-75
2023/08/10 08:38:16;;;;;;;1.00;0.90;;;;;;;23.19;54.01;101435.59;5030440;28;20386;-75
2023/08/10 08:40:42;;;;;;;1.67;1.27;;;;;;;22.94;53.19;101441.22;5030502;28;21396;-75
2023/08/10 08:43:10;;;;;;;1.50;1.30;;;;;;;22.97;53.38;101438.03;5030395;28;20382;-74
2023/08/10 08:45:35;;;;;;;2.90;1.30;;;;;;;23.00;53.24;101443.00;5030528;28;20382;-74
2023/08/10 08:48:03;;;;;;;1.37;1.27;;;;;;;22.90;52.96;101438.16;5030177;28;20452;-75
2023/08/10 08:50:29;;;;;;;3.97;1.70;;;;;;;22.84;53.36;101437.22;5029817;28;20386;-75
2023/08/10 08:52:55;;;;;;;2.07;1.30;;;;;;;23.30;52.92;101434.78;5030102;28;20394;-74
2023/08/10 08:55:20;;;;;;;3.13;1.65;;;;;;;23.52;51.46;101439.56;5030072;28;20413;-74
2023/08/10 08:57:47;;;;;;;4.00;1.90;;;;;;;23.41;51.95;101442.03;5029356;28;20402;-74
2023/08/10 09:00:13;;;;;;;2.42;1.95;;;;;;;23.22;51.44;101430.53;5030225;28;20830;-75
2023/08/10 09:02:39;;;;;;;2.03;1.50;;;;;;;23.19;52.16;101439.13;5030471;28;20378;-75
2023/08/10 09:05:05;;;;;;;1.88;1.30;;;;;;;23.17;51.76;101432.31;5030808;28;20375;-76
2023/08/10 09:07:31;;;;;;;3.15;1.65;;;;;;;23.46;51.77;101430.50;5029927;28;20386;-75
2023/08/10 09:09:57;;;;;;;2.60;1.87;;;;;;;23.69;50.90;101439.63;5030732;28;20386;-74
2023/08/10 09:12:32;;;;;;;1.83;1.27;;;;;;;23.38;50.61;101444.41;5030305;28;20393;-75
2023/08/10 09:15:27;;;;;;;1.98;1.30;;;;;;;23.52;50.70;101442.25;5030627;28;20767;-75
2023/08/10 09:17:54;;;;;;;3.13;1.75;;;;;;;23.46;50.55;101444.00;5032812;28;20484;-75
2023/08/10 09:20:25;;;;;;;3.33;1.92;;;;;;;23.62;50.53;101448.72;5034186;28;20730;-75
2023/08/10 09:22:56;;;;;;;3.50;2.80;;;;;;;23.72;50.47;101449.97;5026229;28;20491;-76
2023/08/10 09:25:22;;;;;;;1.57;1.20;;;;;;;23.48;49.90;101455.44;5015384;28;20508;-75
2023/08/10 09:27:48;;;;;;;3.40;2.10;;;;;;;23.48;49.49;101444.63;5032063;28;20425;-75
2023/08/10 09:30:16;;;;;;;4.80;2.65;;;;;;;23.57;49.64;101448.59;5033803;28;20456;-75
2023/08/10 09:32:42;;;;;;;2.10;1.30;;;;;;;23.58;49.48;101452.13;5033675;28;20405;-75
2023/08/10 09:35:14;;;;;;;4.20;1.73;;;;;;;23.37;50.03;101446.28;5034004;28;20437;-74
2023/08/10 09:37:39;;;;;;;2.00;1.70;;;;;;;23.42;50.44;101445.56;5033294;28;20890;-75
2023/08/10 09:40:06;;;;;;;4.00;2.22;;;;;;;23.33;50.71;101436.16;5033557;28;20393;-75
2023/08/10 09:42:33;;;;;;;3.20;2.17;;;;;;;23.28;51.02;101437.72;5021727;28;20391;-74
2023/08/10 09:45:09;;;;;;;3.70;1.88;;;;;;;23.56;50.24;101444.25;5012403;28;20384;-74
2023/08/10 09:47:37;;;;;;;3.50;2.28;;;;;;;23.67;50.17;101450.69;5014343;28;20395;-75
2023/08/10 09:50:05;;;;;;;3.72;2.45;;;;;;;23.84;49.97;101446.19;5015165;28;20441;-75
2023/08/10 09:52:34;;;;;;;3.38;2.28;;;;;;;23.73;50.26;101446.19;5016307;28;20538;-75
2023/08/10 09:55:00;;;;;;;4.10;2.10;;;;;;;23.84;50.25;101443.50;5023088;28;20411;-72
2023/08/10 09:57:27;;;;;;;4.97;2.37;;;;;;;23.98;49.77;101446.72;5029885;28;20409;-75
2023/08/10 09:59:54;;;;;;;3.45;2.78;;;;;;;24.09;49.89;101436.91;5025955;28;20387;-75
2023/08/10 10:02:20;;;;;;;4.65;2.70;;;;;;;24.00;49.91;101439.19;5023651;28;20403;-76
2023/08/10 10:04:46;;;;;;;3.38;2.28;;;;;;;23.87;50.33;101444.06;5028683;28;20380;-75
2023/08/10 10:07:13;;;;;;;2.78;1.77;;;;;;;24.11;50.24;101442.91;5012964;28;20880;-74
2023/08/10 10:09:43;;;;;;;2.90;1.90;;;;;;;24.07;49.94;101447.16;5013712;28;20384;-74
2023/08/10 10:12:13;;;;;;;3.95;1.52;;;;;;;24.15;49.93;101440.53;5012947;28;20434;-76
2023/08/10 10:14:44;;;;;;;2.25;1.77;;;;;;;24.18;50.17;101434.63;5013903;28;20404;-75
2023/08/10 10:17:11;;;;;;;2.33;1.73;;;;;;;24.25;49.91;101427.16;5013593;28;20777;-74
2023/08/10 10:19:38;;;;;;;2.20;1.73;;;;;;;24.38;49.33;101426.88;5013298;28;20372;-74
2023/08/10 10:22:04;;;;;;;3.33;1.60;;;;;;;24.37;49.18;101419.78;5013654;28;20383;-76
2023/08/10 10:24:33;;;;;;;2.90;2.00;;;;;;;24.69;49.01;101429.28;5014699;28;20438;-77
2023/08/10 10:27:01;;;;;;;2.70;2.08;;;;;;;24.50;48.92;101418.66;5014184;28;20752;-76
2023/08/10 10:29:41;;;;;;;2.58;1.60;;;;;;;24.59;48.57;101419.09;5028111;28;20384;-76
2023/08/10 10:32:10;;;;;;;6.38;2.80;;;;;;;24.59;48.60;101414.47;5012373;28;20892;-76
2023/08/10 10:34:37;;;;;;;4.43;1.95;;;;;;;24.47;48.97;101412.91;5011688;28;20416;-75
2023/08/10 10:37:14;;;;;;;2.75;1.90;;;;;;;24.71;48.68;101411.69;5013272;28;20477;-75
2023/08/10 10:39:41;;;;;;;3.38;2.20;;;;;;;24.83;48.63;101408.91;5013706;28;20396;-77
2023/08/10 10:42:17;;;;;;;3.78;1.80;;;;;;;24.98;48.46;101400.16;5029454;28;20480;-75
2023/08/10 10:45:14;;;;;;;2.42;1.58;;;;;;;25.11;47.28;101409.81;5014062;28;20491;-76
2023/08/10 10:47:49;;;;;;;3.10;1.90;;;;;;;24.68;47.22;101404.03;5013648;28;20376;-76
2023/08/10 10:50:28;;;;;;;3.33;1.70;;;;;;;25.17;47.82;101404.22;5013397;28;20427;-74
2023/08/10 10:53:15;;;;;;;4.13;1.75;;;;;;;25.59;47.77;101402.88;5013664;28;20379;-76
2023/08/10 10:55:44;;;;;;;2.28;1.60;;;;;;;25.72;47.68;101402.47;5013429;28;20856;-76
2023/08/10 10:58:14;;;;;;;2.78;1.70;;;;;;;25.85;47.58;101397.72;5013959;28;20376;-75
2023/08/10 11:00:41;;;;;;;2.67;1.67;;;;;;;25.83;47.86;101395.25;5013482;28;20384;-76
2023/08/10 11:03:08;;;;;;;3.00;1.80;;;;;;;26.03;47.34;101397.38;5012889;28;20411;-76
2023/08/10 11:05:34;;;;;;;3.58;1.67;;;;;;;25.94;46.70;101405.16;5012034;28;20384;-74
2023/08/10 11:08:03;;;;;;;2.20;1.40;;;;;;;25.57;44.34;101410.44;5013650;28;20391;-75
2023/08/10 11:10:40;;;;;;;2.70;1.70;;;;;;;25.67;45.87;101412.44;5012896;28;20387;-75
2023/08/10 11:13:07;;;;;;;5.00;2.20;;;;;;;25.94;46.35;101405.16;5013282;28;20408;-76
2023/08/10 11:15:34;;;;;;;4.05;1.70;;;;;;;26.06;45.48;101404.22;5014403;28;20796;-75
2023/08/10 11:18:00;;;;;;;2.90;1.70;;;;;;;25.95;45.26;101411.44;5013345;28;20861;-75
2023/08/10 11:20:26;;;;;;;2.58;1.88;;;;;;;26.08;45.12;101410.19;5014089;28;20728;-76
2023/08/10 11:22:52;;;;;;;2.87;1.53;;;;;;;26.09;44.95;101407.22;5013818;28;20920;-76